Time;durP1;ratioP1;P1;durP2;ratioP2;P2;SDS_P1;SDS_P2;PMS_P1;PMS_P2;Temp;Humidity;BMP_temperature;BMP_pressure;BME280_temperature;BME280_humidity;BME280_pressure;Samples;Min_cycle;Max_cycle;Signal;HPM_P1;HPM_P2
2023/04/28 00:01:42;;;;;;;26.35;15.52;;;8.90;99.90;;;;;;5075961;28;20220;-71
2023/04/28 00:04:32;;;;;;;30.20;15.65;;;8.80;99.90;;;;;;5088096;28;20747;-72
2023/04/28 00:07:21;;;;;;;28.23;16.33;;;8.80;99.90;;;;;;5072774;28;20324;-74
2023/04/28 00:10:10;;;;;;;30.10;16.00;;;8.70;99.90;;;;;;5062881;28;20223;-75
2023/04/28 00:12:59;;;;;;;30.83;16.33;;;8.60;99.90;;;;;;5073264;28;20255;-75
2023/04/28 00:15:51;;;;;;;26.45;14.75;;;8.60;99.90;;;;;;5077840;28;20458;-73
2023/04/28 00:18:40;;;;;;;29.50;16.88;;;8.40;99.90;;;;;;5077657;28;20223;-75
2023/04/28 00:21:30;;;;;;;28.98;15.98;;;8.40;99.90;;;;;;5077929;28;20228;-75
2023/04/28 00:24:19;;;;;;;28.20;16.83;;;8.20;99.90;;;;;;5077739;28;20324;-75
2023/04/28 00:27:09;;;;;;;28.67;16.38;;;8.10;99.90;;;;;;5067034;28;20228;-74
2023/04/28 00:29:58;;;;;;;33.05;16.80;;;8.00;99.90;;;;;;5067066;28;20541;-74
2023/04/28 00:32:47;;;;;;;26.00;15.93;;;7.90;99.90;;;;;;5050111;28;20231;-75
2023/04/28 00:35:36;;;;;;;27.98;16.60;;;8.00;99.90;;;;;;5048310;28;20236;-72
2023/04/28 00:38:26;;;;;;;28.17;16.42;;;8.10;99.90;;;;;;5058746;28;20225;-76
2023/04/28 00:41:15;;;;;;;27.10;15.67;;;8.20;99.90;;;;;;5059712;28;20233;-76
2023/04/28 00:44:04;;;;;;;31.35;16.60;;;8.20;99.90;;;;;;5053111;28;20231;-73
2023/04/28 00:46:54;;;;;;;28.25;15.85;;;8.20;99.90;;;;;;5046950;28;20229;-76
2023/04/28 00:49:43;;;;;;;27.30;16.37;;;8.10;99.90;;;;;;5041884;28;20767;-75
2023/04/28 00:52:32;;;;;;;30.03;16.73;;;8.10;99.90;;;;;;5051095;28;20231;-75
2023/04/28 00:55:24;;;;;;;26.58;16.27;;;8.20;99.90;;;;;;5047093;28;20468;-74
2023/04/28 00:58:14;;;;;;;29.85;16.48;;;8.20;99.90;;;;;;5035717;28;20738;-75
2023/04/28 01:01:04;;;;;;;29.55;16.83;;;8.10;99.90;;;;;;5039928;28;20236;-74
2023/04/28 01:03:53;;;;;;;29.52;17.00;;;8.00;99.90;;;;;;5034910;28;20220;-75
2023/04/28 01:06:44;;;;;;;29.07;17.13;;;7.90;99.90;;;;;;5036480;28;20710;-75
2023/04/28 01:09:33;;;;;;;33.40;16.55;;;7.90;99.90;;;;;;5047843;28;20410;-75
2023/04/28 01:12:23;;;;;;;32.95;17.35;;;7.80;99.90;;;;;;5040792;28;20659;-74
2023/04/28 01:15:17;;;;;;;30.30;15.97;;;7.70;99.90;;;;;;5046475;28;20235;-75
2023/04/28 01:18:07;;;;;;;26.52;16.70;;;7.60;99.90;;;;;;5039715;28;20721;-74
2023/04/28 01:20:56;;;;;;;28.23;16.47;;;7.60;99.90;;;;;;5036941;28;20648;-73
2023/04/28 01:23:47;;;;;;;30.50;17.63;;;7.50;99.90;;;;;;5028965;28;20310;-75
2023/04/28 01:26:36;;;;;;;27.90;16.50;;;7.70;99.90;;;;;;5038367;28;20323;-74
2023/04/28 01:29:26;;;;;;;29.23;17.73;;;7.60;99.90;;;;;;5066549;28;20310;-75
2023/04/28 01:32:15;;;;;;;25.87;16.73;;;7.50;99.90;;;;;;5087567;28;20266;-76
2023/04/28 01:35:05;;;;;;;31.90;18.03;;;7.60;99.90;;;;;;5078123;28;20226;-74
2023/04/28 01:37:56;;;;;;;28.67;17.03;;;7.50;99.90;;;;;;5070718;28;20742;-75
2023/04/28 01:40:46;;;;;;;27.30;17.20;;;7.50;99.90;;;;;;5073005;28;20820;-75
2023/04/28 01:43:35;;;;;;;29.73;17.13;;;7.50;99.90;;;;;;5075376;28;20223;-76
2023/04/28 01:46:24;;;;;;;28.13;17.43;;;7.40;99.90;;;;;;5080613;28;20225;-74
2023/04/28 01:49:13;;;;;;;25.90;16.27;;;7.50;99.90;;;;;;5087731;28;20253;-74
2023/04/28 01:52:02;;;;;;;35.27;16.70;;;7.40;99.90;;;;;;5105982;27;20223;-73
2023/04/28 01:54:51;;;;;;;30.77;16.90;;;7.40;99.90;;;;;;5075732;28;20342;-74
2023/04/28 01:57:41;;;;;;;27.60;16.63;;;7.50;99.90;;;;;;5077965;28;20215;-74
2023/04/28 02:00:30;;;;;;;30.50;16.60;;;7.50;99.90;;;;;;5084793;28;20243;-74
2023/04/28 02:03:19;;;;;;;32.37;17.57;;;7.50;99.90;;;;;;5110360;27;20237;-74
2023/04/28 02:06:09;;;;;;;32.20;17.73;;;7.50;99.90;;;;;;5079095;28;20230;-73
2023/04/28 02:08:57;;;;;;;25.87;16.50;;;7.50;99.90;;;;;;5085043;28;20277;-74
2023/04/28 02:11:46;;;;;;;28.70;17.17;;;7.50;99.90;;;;;;5081999;27;20583;-73
2023/04/28 02:14:36;;;;;;;30.87;16.57;;;7.30;99.90;;;;;;5080447;28;20216;-76
2023/04/28 02:17:25;;;;;;;34.53;17.37;;;7.30;99.90;;;;;;5074487;28;20419;-76
2023/04/28 02:20:14;;;;;;;29.87;16.87;;;7.20;99.90;;;;;;5105949;27;20255;-77
2023/04/28 02:23:03;;;;;;;26.43;16.30;;;7.00;99.90;;;;;;5076644;28;20239;-76
2023/04/28 02:26:02;;;;;;;28.00;17.10;;;7.10;99.90;;;;;;5077123;28;20224;-77
2023/04/28 02:28:51;;;;;;;31.27;17.33;;;7.10;99.90;;;;;;5074812;28;20946;-77
2023/04/28 02:31:41;;;;;;;30.40;17.20;;;7.00;99.90;;;;;;5076228;28;20227;-76
2023/04/28 02:34:30;;;;;;;30.37;18.13;;;7.10;99.90;;;;;;5075575;28;20227;-75
2023/04/28 02:37:19;;;;;;;31.53;16.60;;;7.00;99.90;;;;;;5074760;28;20297;-74
2023/04/28 02:40:10;;;;;;;26.77;15.80;;;7.10;99.90;;;;;;5077195;28;20218;-74
2023/04/28 02:42:59;;;;;;;31.07;16.73;;;7.10;99.90;;;;;;5078810;28;20773;-74
2023/04/28 02:45:48;;;;;;;27.70;16.33;;;7.10;99.90;;;;;;5074811;28;20241;-76
2023/04/28 02:48:39;;;;;;;31.77;16.27;;;7.10;99.90;;;;;;5097314;27;20290;-76
2023/04/28 02:51:28;;;;;;;30.10;16.30;;;7.00;99.90;;;;;;5068349;28;20270;-75
2023/04/28 02:54:26;;;;;;;26.47;15.77;;;6.90;99.90;;;;;;5085614;28;20379;-76
2023/04/28 02:57:15;;;;;;;28.00;16.07;;;7.00;99.90;;;;;;5088571;28;20912;-77
2023/04/28 03:00:05;;;;;;;25.17;16.03;;;6.90;99.90;;;;;;5100467;27;20725;-76
2023/04/28 03:03:02;;;;;;;29.30;16.00;;;6.90;99.90;;;;;;5069959;28;20310;-75
2023/04/28 03:05:52;;;;;;;26.70;14.73;;;6.90;99.90;;;;;;5078123;28;20285;-78
2023/04/28 03:08:41;;;;;;;29.53;16.80;;;7.10;99.90;;;;;;5075254;28;20947;-77
2023/04/28 03:11:30;;;;;;;28.00;16.00;;;7.20;99.90;;;;;;5078872;28;20268;-78
2023/04/28 03:14:20;;;;;;;31.80;16.17;;;7.10;99.90;;;;;;5077627;28;20293;-77
2023/04/28 03:17:08;;;;;;;24.63;15.70;;;7.30;99.90;;;;;;5083120;28;20219;-77
2023/04/28 03:19:58;;;;;;;27.00;15.77;;;7.30;99.90;;;;;;5075924;28;20278;-76
2023/04/28 03:22:48;;;;;;;30.63;16.63;;;7.20;99.90;;;;;;5071389;28;20652;-75
2023/04/28 03:25:41;;;;;;;29.17;15.67;;;7.30;99.90;;;;;;5067633;28;20226;-76
2023/04/28 03:28:30;;;;;;;31.13;16.53;;;7.20;99.90;;;;;;5088313;27;20253;-75
2023/04/28 03:31:20;;;;;;;25.60;15.67;;;7.00;99.90;;;;;;5072027;28;20237;-76
2023/04/28 03:34:09;;;;;;;32.60;15.57;;;6.90;99.90;;;;;;5077053;27;20912;-75
2023/04/28 03:36:58;;;;;;;27.23;15.50;;;7.10;99.90;;;;;;5069329;28;20394;-76
2023/04/28 03:39:51;;;;;;;26.13;15.63;;;7.20;99.90;;;;;;5076290;28;20225;-75
2023/04/28 03:42:40;;;;;;;26.60;15.90;;;7.10;99.90;;;;;;5099244;27;20779;-76
2023/04/28 03:45:32;;;;;;;23.60;15.30;;;7.10;99.90;;;;;;5076442;28;20222;-75
2023/04/28 03:48:21;;;;;;;26.47;16.00;;;7.20;99.90;;;;;;5073878;28;20240;-75
2023/04/28 03:51:11;;;;;;;32.50;16.33;;;7.20;99.90;;;;;;5067944;28;20230;-75
2023/04/28 03:54:00;;;;;;;22.93;15.27;;;7.20;99.90;;;;;;5078657;28;20228;-75
2023/04/28 03:56:51;;;;;;;28.50;14.83;;;7.30;99.90;;;;;;5074266;28;20220;-76
2023/04/28 03:59:40;;;;;;;26.47;15.17;;;7.40;99.90;;;;;;5099271;27;20695;-76
2023/04/28 04:02:31;;;;;;;28.60;15.43;;;7.60;99.90;;;;;;5071138;28;20313;-76
2023/04/28 04:05:21;;;;;;;27.10;15.37;;;7.60;99.90;;;;;;5065310;28;20230;-76
2023/04/28 04:08:10;;;;;;;26.57;15.50;;;7.60;99.90;;;;;;5071196;28;20227;-76
2023/04/28 04:10:59;;;;;;;25.47;15.37;;;7.80;99.90;;;;;;5077851;28;20212;-75
2023/04/28 04:13:49;;;;;;;27.63;16.07;;;7.80;99.90;;;;;;5064564;28;20990;-76
2023/04/28 04:16:40;;;;;;;27.70;15.70;;;7.90;99.90;;;;;;5079152;27;20228;-76
2023/04/28 04:19:29;;;;;;;25.87;15.87;;;7.90;99.90;;;;;;5069682;28;20225;-76
2023/04/28 04:22:17;;;;;;;30.57;15.50;;;7.90;99.90;;;;;;5069545;28;20230;-73
2023/04/28 04:25:07;;;;;;;28.33;15.20;;;7.80;99.90;;;;;;5070363;28;20690;-74
2023/04/28 04:27:56;;;;;;;32.33;15.40;;;8.00;99.90;;;;;;5070385;28;20235;-74
2023/04/28 04:30:46;;;;;;;28.77;16.77;;;8.10;99.90;;;;;;5099955;27;20220;-74
2023/04/28 04:33:36;;;;;;;28.07;16.23;;;8.20;99.90;;;;;;5068283;28;20322;-75
2023/04/28 04:36:26;;;;;;;27.57;16.20;;;8.20;99.90;;;;;;5062866;28;20341;-74
2023/04/28 04:39:15;;;;;;;31.27;16.33;;;8.20;99.90;;;;;;5075338;28;20938;-74
2023/04/28 04:42:04;;;;;;;26.10;16.30;;;8.30;99.90;;;;;;5075070;28;20222;-74
2023/04/28 04:45:24;;;;;;;29.30;16.47;;;8.40;99.90;;;;;;5073865;28;20228;-74
2023/04/28 04:48:15;;;;;;;26.53;16.53;;;8.50;99.90;;;;;;5072267;28;20238;-71
2023/04/28 04:51:04;;;;;;;29.93;16.57;;;8.30;99.90;;;;;;5073641;28;20306;-71
2023/04/28 04:53:52;;;;;;;28.97;15.97;;;8.40;99.90;;;;;;5073502;28;20310;-73
2023/04/28 04:56:42;;;;;;;34.27;17.63;;;8.50;99.90;;;;;;5083087;28;20655;-74
2023/04/28 04:59:33;;;;;;;26.17;15.57;;;8.60;99.90;;;;;;5081093;28;20637;-75
2023/04/28 05:02:27;;;;;;;22.97;15.53;;;8.50;99.90;;;;;;5081137;28;20701;-74
2023/04/28 05:05:18;;;;;;;27.30;16.27;;;8.70;99.90;;;;;;5072150;28;20219;-74
2023/04/28 05:08:26;;;;;;;31.93;17.07;;;8.70;99.90;;;;;;5102614;28;20268;-72
2023/04/28 05:11:15;;;;;;;29.33;15.67;;;8.90;99.90;;;;;;5073915;28;20227;-72
2023/04/28 05:14:05;;;;;;;29.03;16.60;;;8.80;99.90;;;;;;5068953;28;20296;-73
2023/04/28 05:16:54;;;;;;;24.23;15.97;;;8.90;99.90;;;;;;5072449;28;20368;-74
2023/04/28 05:19:46;;;;;;;27.77;16.03;;;9.10;99.90;;;;;;5095697;27;20232;-73
2023/04/28 05:22:37;;;;;;;38.53;16.88;;;9.20;99.90;;;;;;5087041;28;20261;-73
2023/04/28 05:25:26;;;;;;;27.88;15.98;;;9.30;99.90;;;;;;5084014;28;20231;-72
2023/04/28 05:28:15;;;;;;;23.77;16.40;;;9.50;99.90;;;;;;5071317;28;20224;-75
2023/04/28 05:31:06;;;;;;;26.88;15.70;;;9.50;99.90;;;;;;5076179;28;20467;-74
2023/04/28 05:33:55;;;;;;;30.05;16.30;;;9.60;99.90;;;;;;5073210;28;20318;-73
2023/04/28 05:36:44;;;;;;;32.67;16.50;;;9.70;99.90;;;;;;5087442;27;20228;-74
2023/04/28 05:39:35;;;;;;;28.58;16.17;;;9.90;99.90;;;;;;5069197;28;20278;-76
2023/04/28 05:42:25;;;;;;;26.90;16.35;;;10.00;99.90;;;;;;5073304;28;20679;-75
2023/04/28 05:45:15;;;;;;;26.25;16.58;;;10.10;99.90;;;;;;5100017;27;20213;-77
2023/04/28 05:48:04;;;;;;;27.98;16.92;;;10.20;99.90;;;;;;5071225;28;20213;-78
2023/04/28 05:50:53;;;;;;;25.00;15.77;;;10.20;99.90;;;;;;5068972;28;20765;-74
2023/04/28 05:53:42;;;;;;;26.95;16.67;;;10.40;99.90;;;;;;5072826;28;20227;-75
2023/04/28 05:56:33;;;;;;;25.30;16.65;;;10.30;99.90;;;;;;5069178;28;20390;-74
2023/04/28 05:59:23;;;;;;;26.65;16.02;;;10.20;99.90;;;;;;5073580;28;20236;-74
2023/04/28 06:02:12;;;;;;;25.25;15.55;;;10.30;99.90;;;;;;5074840;28;20634;-75
2023/04/28 06:05:02;;;;;;;26.80;13.98;;;10.40;99.90;;;;;;5076503;28;20227;-75
2023/04/28 06:07:52;;;;;;;24.88;13.13;;;10.60;99.90;;;;;;5074178;28;20293;-78
2023/04/28 06:10:43;;;;;;;23.45;12.93;;;10.50;99.90;;;;;;5077834;28;20602;-72
2023/04/28 06:13:33;;;;;;;28.02;14.00;;;10.60;99.90;;;;;;5076341;28;20231;-76
2023/04/28 06:16:23;;;;;;;26.30;13.95;;;10.80;99.90;;;;;;5077862;28;20302;-74
2023/04/28 06:19:17;;;;;;;32.97;14.85;;;10.60;99.90;;;;;;5079705;28;20234;-74
2023/04/28 06:22:06;;;;;;;23.98;14.52;;;10.70;99.90;;;;;;5065354;28;20274;-75
2023/04/28 06:24:56;;;;;;;26.65;13.32;;;10.80;99.90;;;;;;5075353;28;20235;-76
2023/04/28 06:27:56;;;;;;;22.58;12.23;;;11.10;99.70;;;;;;5083613;28;20755;-78
2023/04/28 06:30:50;;;;;;;22.90;11.75;;;11.40;98.50;;;;;;5077522;28;20257;-78
2023/04/28 06:33:42;;;;;;;23.13;11.45;;;11.30;97.50;;;;;;5082052;28;20268;-79
2023/04/28 06:36:32;;;;;;;16.45;11.73;;;11.40;97.10;;;;;;5107914;27;20230;-78
2023/04/28 06:39:21;;;;;;;19.52;10.55;;;11.50;97.20;;;;;;5067763;28;20227;-79
2023/04/28 06:42:10;;;;;;;20.30;10.60;;;11.80;96.60;;;;;;5070626;28;20208;-77
2023/04/28 06:45:03;;;;;;;17.40;9.90;;;12.10;95.80;;;;;;5079642;28;20227;-78
2023/04/28 06:47:54;;;;;;;22.13;9.32;;;12.60;95.70;;;;;;5079538;28;20223;-76
2023/04/28 06:50:43;;;;;;;15.10;9.13;;;13.10;94.70;;;;;;5071286;28;20239;-77
2023/04/28 06:53:32;;;;;;;14.75;9.27;;;13.50;94.40;;;;;;5084861;28;20230;-79
2023/04/28 06:56:22;;;;;;;14.65;8.85;;;13.70;93.10;;;;;;5076725;28;20704;-77
2023/04/28 06:59:11;;;;;;;17.73;7.93;;;13.80;92.70;;;;;;5072846;28;20224;-77
2023/04/28 07:02:01;;;;;;;11.98;7.03;;;14.00;91.40;;;;;;5073780;28;20226;-75
2023/04/28 07:04:51;;;;;;;13.82;7.57;;;14.20;92.30;;;;;;5078269;28;20223;-78
2023/04/28 07:07:40;;;;;;;17.88;6.78;;;14.40;90.00;;;;;;5066472;28;20224;-77
2023/04/28 07:10:29;;;;;;;11.93;6.97;;;14.40;90.20;;;;;;5100037;27;20216;-78
2023/04/28 07:13:18;;;;;;;26.00;8.68;;;14.70;88.50;;;;;;5073275;28;20227;-77
2023/04/28 07:16:07;;;;;;;13.98;7.10;;;14.60;90.60;;;;;;5072182;28;20215;-77
2023/04/28 07:18:56;;;;;;;11.68;7.68;;;15.10;87.60;;;;;;5077025;28;20216;-79
2023/04/28 07:21:46;;;;;;;14.60;8.15;;;14.80;86.20;;;;;;5075994;28;20361;-78
2023/04/28 07:24:34;;;;;;;17.73;8.20;;;14.90;87.10;;;;;;5077857;28;20584;-78
2023/04/28 07:27:23;;;;;;;14.88;7.20;;;15.20;88.20;;;;;;5075318;28;20228;-79
2023/04/28 07:30:13;;;;;;;10.07;5.78;;;15.60;89.60;;;;;;5074584;28;20227;-76
2023/04/28 07:33:15;;;;;;;11.35;6.75;;;15.80;87.00;;;;;;5069684;28;20743;-78
2023/04/28 07:36:04;;;;;;;14.77;6.38;;;16.00;82.80;;;;;;5075982;28;20279;-78
2023/04/28 07:38:54;;;;;;;11.02;5.93;;;15.60;85.50;;;;;;5092236;28;20223;-78
2023/04/28 07:41:43;;;;;;;11.15;5.50;;;16.10;83.00;;;;;;5075646;28;20762;-78
2023/04/28 07:44:32;;;;;;;9.73;4.70;;;16.40;84.80;;;;;;5074750;28;20231;-77
2023/04/28 07:47:22;;;;;;;5.40;3.28;;;16.60;82.00;;;;;;5078847;28;20258;-79
2023/04/28 07:50:12;;;;;;;6.65;2.97;;;16.40;76.30;;;;;;5068166;28;20725;-78
2023/04/28 07:53:04;;;;;;;5.35;2.80;;;16.50;73.50;;;;;;5098424;27;20567;-76
2023/04/28 07:55:55;;;;;;;9.70;4.82;;;16.40;73.40;;;;;;5074204;28;20228;-77
2023/04/28 07:58:43;;;;;;;4.97;3.15;;;16.90;75.90;;;;;;5077259;28;20243;-77
2023/04/28 08:01:33;;;;;;;6.65;2.97;;;16.00;73.10;;;;;;5078519;28;20825;-76
2023/04/28 08:04:21;;;;;;;9.15;3.67;;;15.20;75.20;;;;;;5069079;28;20313;-76
2023/04/28 08:07:14;;;;;;;4.85;3.47;;;15.60;75.00;;;;;;5060954;28;20896;-77
2023/04/28 08:10:03;;;;;;;8.27;3.85;;;15.60;74.50;;;;;;5074158;28;20215;-77
2023/04/28 08:12:53;;;;;;;5.07;3.53;;;15.00;74.70;;;;;;5068118;28;20327;-77
2023/04/28 08:15:42;;;;;;;4.78;3.40;;;14.50;74.00;;;;;;5070074;28;20299;-76
2023/04/28 08:18:31;;;;;;;6.95;3.55;;;15.70;75.50;;;;;;5074404;28;20274;-77
2023/04/28 08:21:20;;;;;;;17.38;4.18;;;14.80;72.70;;;;;;5071089;28;20228;-77
2023/04/28 08:24:09;;;;;;;5.95;3.40;;;14.20;73.80;;;;;;5076927;28;20241;-74
2023/04/28 08:26:59;;;;;;;5.07;3.30;;;13.90;75.90;;;;;;5071524;28;20218;-76
2023/04/28 08:29:49;;;;;;;6.35;3.05;;;13.90;74.70;;;;;;5080128;28;20226;-77
2023/04/28 08:32:38;;;;;;;4.38;2.28;;;13.80;74.60;;;;;;5072118;28;20224;-78
2023/04/28 08:35:27;;;;;;;4.57;2.53;;;13.90;70.90;;;;;;5066930;28;20221;-77
2023/04/28 08:38:17;;;;;;;4.20;2.70;;;13.80;68.30;;;;;;5088584;27;20232;-73
2023/04/28 08:41:06;;;;;;;4.18;2.42;;;13.80;69.40;;;;;;5078477;28;20216;-73
2023/04/28 08:43:55;;;;;;;5.28;3.00;;;13.90;68.40;;;;;;5075870;28;21038;-73
2023/04/28 08:46:49;;;;;;;6.22;2.60;;;14.00;70.00;;;;;;5065722;28;20216;-72
2023/04/28 08:49:40;;;;;;;5.03;3.10;;;14.30;71.00;;;;;;5068633;28;20259;-73
2023/04/28 08:52:30;;;;;;;6.53;2.85;;;14.00;71.50;;;;;;5068111;28;20247;-73
2023/04/28 08:55:19;;;;;;;4.95;3.20;;;14.70;71.40;;;;;;5101841;27;20388;-71
2023/04/28 08:58:09;;;;;;;6.55;3.00;;;16.50;73.00;;;;;;5076941;28;20219;-73
2023/04/28 09:01:03;;;;;;;6.93;3.35;;;16.70;68.00;;;;;;5073005;28;20224;-74
2023/04/28 09:03:54;;;;;;;4.43;3.13;;;17.20;71.00;;;;;;5068821;28;20239;-73
2023/04/28 09:06:44;;;;;;;5.72;3.17;;;17.30;70.40;;;;;;5072599;28;20226;-74
2023/04/28 09:09:37;;;;;;;6.43;3.78;;;18.40;69.10;;;;;;5080218;28;20274;-74
2023/04/28 09:12:37;;;;;;;4.40;2.97;;;18.90;66.60;;;;;;5066153;28;20227;-72
2023/04/28 09:15:28;;;;;;;7.50;3.58;;;19.20;66.10;;;;;;5072711;28;20223;-72
2023/04/28 09:18:19;;;;;;;9.02;3.25;;;19.50;63.50;;;;;;5074406;28;20215;-71
2023/04/28 09:21:10;;;;;;;15.68;4.18;;;19.90;62.70;;;;;;5068171;28;21073;-73
2023/04/28 09:23:59;;;;;;;83.22;10.10;;;20.00;61.00;;;;;;5075554;28;20849;-72
2023/04/28 09:26:50;;;;;;;7.45;3.50;;;20.50;60.30;;;;;;5077333;28;20234;-71
2023/04/28 09:29:53;;;;;;;25.80;5.20;;;21.00;60.30;;;;;;5070089;28;20684;-73
2023/04/28 09:32:42;;;;;;;9.30;3.67;;;20.90;58.70;;;;;;5074841;28;20220;-73
2023/04/28 09:35:39;;;;;;;5.25;3.50;;;21.50;59.10;;;;;;5075828;28;21573;-75
2023/04/28 09:38:29;;;;;;;4.70;3.38;;;22.00;56.80;;;;;;5086601;28;20312;-74
2023/04/28 09:41:18;;;;;;;6.30;3.90;;;21.70;56.60;;;;;;5074326;28;20742;-77
2023/04/28 09:44:15;;;;;;;12.15;4.22;;;22.40;55.10;;;;;;5074239;28;20228;-76
2023/04/28 09:47:21;;;;;;;10.27;3.47;;;22.70;56.40;;;;;;5074157;28;20236;-75
2023/04/28 09:50:13;;;;;;;8.57;3.72;;;23.40;53.20;;;;;;5089269;28;20688;-76
2023/04/28 09:53:03;;;;;;;4.68;3.58;;;23.90;51.30;;;;;;5071402;28;20296;-77
2023/04/28 09:55:55;;;;;;;4.65;3.58;;;23.40;52.20;;;;;;5065145;28;20247;-76
2023/04/28 09:58:46;;;;;;;7.13;3.53;;;24.50;52.40;;;;;;5069008;28;20775;-76
2023/04/28 10:01:40;;;;;;;7.93;3.80;;;23.40;51.30;;;;;;5075552;28;20219;-76
2023/04/28 10:04:32;;;;;;;4.45;3.28;;;24.50;50.80;;;;;;5069954;28;20953;-77
2023/04/28 10:07:22;;;;;;;3.70;3.00;;;25.30;49.00;;;;;;5071630;28;20239;-76
2023/04/28 10:10:15;;;;;;;5.75;2.92;;;25.00;47.80;;;;;;5080239;28;20228;-76
2023/04/28 10:13:06;;;;;;;5.47;2.88;;;24.60;49.80;;;;;;5076994;28;20224;-76
2023/04/28 10:15:57;;;;;;;5.85;3.05;;;26.00;53.90;;;;;;5078045;28;20265;-75
2023/04/28 10:18:46;;;;;;;4.78;2.88;;;26.60;54.90;;;;;;5078811;28;20552;-77
2023/04/28 10:21:43;;;;;;;6.50;3.00;;;26.70;46.10;;;;;;5069618;28;20230;-77
2023/04/28 10:24:33;;;;;;;4.32;2.97;;;26.40;44.50;;;;;;5072605;28;20296;-76
2023/04/28 10:27:29;;;;;;;5.72;2.78;;;24.80;44.20;;;;;;5067014;28;20223;-76
2023/04/28 10:30:20;;;;;;;4.57;2.47;;;25.00;47.00;;;;;;5092141;27;20311;-75
2023/04/28 10:33:31;;;;;;;4.30;2.47;;;25.60;43.50;;;;;;5068253;28;20787;-76
2023/04/28 10:36:46;;;;;;;4.53;2.28;;;26.90;43.80;;;;;;5077525;28;26233;-75
2023/04/28 10:39:35;;;;;;;8.68;2.92;;;28.30;45.00;;;;;;5078724;28;21016;-76
2023/04/28 10:42:51;;;;;;;5.50;2.78;;;27.90;53.90;;;;;;5105150;27;20223;-77
2023/04/28 10:46:13;;;;;;;4.57;2.50;;;27.30;48.00;;;;;;5064787;28;20281;-76
2023/04/28 10:49:03;;;;;;;4.95;2.95;;;24.70;46.30;;;;;;5072060;28;20219;-78
2023/04/28 10:51:51;;;;;;;4.18;2.58;;;24.30;49.40;;;;;;5082405;28;20232;-77
2023/04/28 10:54:40;;;;;;;3.60;2.78;;;26.00;50.00;;;;;;5080872;28;20230;-78
2023/04/28 10:57:29;;;;;;;3.40;2.17;;;26.90;47.60;;;;;;5074861;28;20231;-77
2023/04/28 11:00:29;;;;;;;4.07;2.85;;;26.30;46.90;;;;;;5086120;28;20247;-75
2023/04/28 11:03:49;;;;;;;4.00;2.45;;;27.10;46.60;;;;;;5068875;28;20235;-76
2023/04/28 11:06:40;;;;;;;4.55;3.20;;;28.50;52.40;;;;;;5088459;28;20215;-76
2023/04/28 11:09:48;;;;;;;6.75;2.97;;;23.90;54.00;;;;;;5083254;28;20316;-75
2023/04/28 11:12:57;;;;;;;5.43;2.50;;;24.20;57.00;;;;;;5069499;28;20223;-76
2023/04/28 11:16:03;;;;;;;5.45;3.20;;;22.20;51.90;;;;;;5078179;28;20227;-75
2023/04/28 11:18:55;;;;;;;5.82;3.17;;;20.60;46.10;;;;;;5077636;28;20223;-75
2023/04/28 11:21:44;;;;;;;3.75;2.45;;;21.20;46.60;;;;;;5077972;28;20237;-75
2023/04/28 11:24:33;;;;;;;3.47;2.67;;;22.30;44.80;;;;;;5073494;28;20227;-75
2023/04/28 11:27:24;;;;;;;7.88;3.15;;;22.30;44.80;;;;;;5072528;28;20630;-74
2023/04/28 11:30:24;;;;;;;9.00;3.33;;;22.00;45.70;;;;;;5073227;28;20216;-75
2023/04/28 11:33:13;;;;;;;5.53;3.35;;;25.30;44.70;;;;;;5077082;28;20218;-75
2023/04/28 11:36:05;;;;;;;6.28;3.00;;;28.00;43.70;;;;;;5078496;28;20227;-76
2023/04/28 11:38:56;;;;;;;6.70;3.03;;;29.00;40.50;;;;;;5081878;28;20312;-76
2023/04/28 11:41:45;;;;;;;5.45;3.40;;;29.60;39.40;;;;;;5080352;28;20234;-76
2023/04/28 11:44:34;;;;;;;4.97;3.03;;;30.60;40.60;;;;;;5068527;28;20215;-76
2023/04/28 11:47:31;;;;;;;5.13;3.33;;;29.70;40.20;;;;;;5102817;27;20991;-76
2023/04/28 11:50:38;;;;;;;4.82;3.35;;;31.10;39.80;;;;;;5081704;28;20223;-76
2023/04/28 11:53:42;;;;;;;8.05;3.10;;;;;;;;;;5078611;28;21063;-76
2023/04/28 11:56:37;;;;;;;7.28;3.50;;;29.70;34.70;;;;;;5082756;28;20721;-76
2023/04/28 11:59:28;;;;;;;6.25;3.53;;;29.50;38.80;;;;;;5075050;28;20334;-76
2023/04/28 12:02:24;;;;;;;7.60;3.72;;;30.80;38.10;;;;;;5079432;28;20241;-75
2023/04/28 12:05:13;;;;;;;9.77;3.90;;;31.60;36.80;;;;;;5076941;28;20211;-75
2023/04/28 12:08:02;;;;;;;6.97;3.40;;;33.50;37.00;;;;;;5058612;28;20530;-75
2023/04/28 12:11:11;;;;;;;5.10;3.50;;;32.10;34.70;;;;;;5072985;28;20680;-76
2023/04/28 12:14:09;;;;;;;5.80;3.85;;;30.80;34.80;;;;;;5072868;28;20223;-75
2023/04/28 12:16:58;;;;;;;9.23;3.78;;;31.80;34.50;;;;;;5099751;27;20242;-76
2023/04/28 12:19:47;;;;;;;4.28;3.60;;;34.10;34.40;;;;;;5062631;28;20341;-78
2023/04/28 12:22:45;;;;;;;5.57;3.78;;;29.40;33.50;;;;;;5069249;28;20725;-79
2023/04/28 12:25:43;;;;;;;5.50;3.72;;;25.90;37.90;;;;;;5071240;28;20323;-77
2023/04/28 12:28:39;;;;;;;7.22;4.22;;;23.00;40.20;;;;;;5070856;28;20268;-77
2023/04/28 12:31:29;;;;;;;6.60;3.85;;;;;;;;;;5074232;28;20246;-77
2023/04/28 12:34:18;;;;;;;5.90;4.05;;;20.10;44.90;;;;;;5069938;28;20227;-76
2023/04/28 12:37:07;;;;;;;6.40;3.90;;;20.00;45.20;;;;;;5066166;28;20324;-82
2023/04/28 12:39:56;;;;;;;5.00;3.60;;;19.20;46.50;;;;;;5071896;28;20216;-79
2023/04/28 12:42:46;;;;;;;4.70;4.00;;;18.80;47.10;;;;;;5084360;28;20799;-81
2023/04/28 12:45:34;;;;;;;7.53;3.90;;;18.90;48.60;;;;;;5074953;28;20574;-78
2023/04/28 12:48:28;;;;;;;4.47;3.42;;;18.90;48.30;;;;;;5072516;28;20248;-78
2023/04/28 12:51:17;;;;;;;8.38;3.60;;;18.80;47.60;;;;;;5068403;28;20222;-78
2023/04/28 12:54:06;;;;;;;4.57;3.28;;;18.60;48.50;;;;;;5066531;28;20268;-76
2023/04/28 12:56:55;;;;;;;11.13;3.60;;;18.50;48.20;;;;;;5063718;28;20319;-77
2023/04/28 12:59:45;;;;;;;14.50;3.97;;;18.50;49.50;;;;;;5072672;28;20270;-74
2023/04/28 13:02:34;;;;;;;7.85;3.95;;;18.00;49.00;;;;;;5069144;28;20219;-75
2023/04/28 13:05:25;;;;;;;25.48;5.10;;;18.00;50.20;;;;;;5073304;28;20691;-73
2023/04/28 13:08:14;;;;;;;13.50;4.18;;;17.90;50.10;;;;;;5074682;28;20223;-76
2023/04/28 13:11:04;;;;;;;43.80;6.20;;;17.80;51.20;;;;;;5072303;28;20212;-75
2023/04/28 13:14:10;;;;;;;6.20;4.22;;;17.80;50.60;;;;;;5068130;28;20250;-76
2023/04/28 13:16:59;;;;;;;5.57;4.00;;;17.70;50.70;;;;;;5086487;28;20226;-75
2023/04/28 13:19:48;;;;;;;6.63;4.07;;;17.30;51.40;;;;;;5076941;28;20312;-75
2023/04/28 13:22:39;;;;;;;8.52;4.38;;;17.50;51.60;;;;;;5075188;28;20230;-75
2023/04/28 13:25:28;;;;;;;7.40;4.20;;;17.70;51.80;;;;;;5065379;28;20219;-74
2023/04/28 13:28:17;;;;;;;8.02;4.50;;;17.60;51.80;;;;;;5077635;28;20236;-73
2023/04/28 13:31:05;;;;;;;6.28;4.13;;;17.80;51.40;;;;;;5101029;27;20219;-75
2023/04/28 13:33:54;;;;;;;5.65;3.92;;;17.60;52.70;;;;;;5066057;28;20265;-74
2023/04/28 13:36:44;;;;;;;5.82;4.00;;;17.50;52.30;;;;;;5064600;28;20224;-75
2023/04/28 13:39:34;;;;;;;6.43;4.05;;;17.40;52.00;;;;;;5070348;28;20243;-75
2023/04/28 13:42:23;;;;;;;9.35;4.45;;;17.40;52.80;;;;;;5071604;28;20242;-76
2023/04/28 13:45:13;;;;;;;8.98;4.47;;;;;;;;;;5069933;28;20310;-74
2023/04/28 13:48:05;;;;;;;6.00;4.60;;;16.00;53.10;;;;;;5073726;28;20241;-74
2023/04/28 13:50:54;;;;;;;5.70;4.28;;;16.50;53.60;;;;;;5074788;28;20223;-77
2023/04/28 13:53:43;;;;;;;7.57;5.50;;;16.80;53.60;;;;;;5076591;28;20224;-78
2023/04/28 13:56:33;;;;;;;8.57;5.25;;;16.80;53.30;;;;;;5079965;28;20231;-77
2023/04/28 13:59:22;;;;;;;8.25;4.85;;;16.50;55.40;;;;;;5068330;28;20216;-77
2023/04/28 14:02:11;;;;;;;6.90;4.95;;;16.70;55.30;;;;;;5065641;28;20223;-78
2023/04/28 14:05:00;;;;;;;8.57;4.70;;;16.90;55.00;;;;;;5095547;27;20293;-77
2023/04/28 14:07:48;;;;;;;7.75;4.85;;;17.00;54.40;;;;;;5109860;27;20780;-77
2023/04/28 14:10:37;;;;;;;12.80;5.18;;;17.30;54.90;;;;;;5084012;28;20271;-77
2023/04/28 14:13:28;;;;;;;9.13;4.53;;;17.40;54.60;;;;;;5073894;28;20797;-77
2023/04/28 14:16:17;;;;;;;7.78;5.00;;;17.20;54.30;;;;;;5068655;28;21015;-77
2023/04/28 14:19:07;;;;;;;8.43;4.90;;;17.10;54.10;;;;;;5071707;28;20227;-77
2023/04/28 14:21:56;;;;;;;9.18;4.88;;;17.20;54.30;;;;;;5101870;27;20322;-78
2023/04/28 14:24:45;;;;;;;8.50;4.47;;;17.30;55.20;;;;;;5076129;28;20361;-77
2023/04/28 14:27:34;;;;;;;7.90;4.90;;;17.20;55.50;;;;;;5065387;28;20236;-77
2023/04/28 14:30:29;;;;;;;8.02;5.15;;;17.20;55.60;;;;;;5070436;28;20294;-77
2023/04/28 14:33:18;;;;;;;11.48;4.97;;;17.10;54.90;;;;;;5068684;28;20817;-78
2023/04/28 14:36:07;;;;;;;17.95;6.18;;;17.30;56.10;;;;;;5100423;27;20235;-77
2023/04/28 14:39:01;;;;;;;7.35;4.28;;;17.40;57.60;;;;;;5083217;28;20216;-75
2023/04/28 14:41:50;;;;;;;10.88;5.15;;;17.20;56.90;;;;;;5083521;28;20661;-77
2023/04/28 14:44:39;;;;;;;9.10;4.65;;;17.10;55.50;;;;;;5087847;28;20215;-77